• Join FlightAware (Why Join?)
  • Login
  • US Flag GB Flag 
10:03 EDT


 

Airport Tracker/Info


-or-


 

Live Flight TrackerFlight Track Log ✈ DAL2028 ✈ 20-Jun-2013 ✈ KDTW - KMCO

Flight Track Log - Related Links

Times and Time Zones

All times are in EDT time to prevent confusion due to time zone crossing. See the DAL2028 flight status page for this flight to view local times or setup timezone preferences in your user account.

Time Position Orientation Groundspeed Altitude Reporting Facility
EDT Latitude Longitude Course Direction KTS MPH feet Rate Location/Type
13:26 42.1975 -83.3581 202° Southwest 160 184 1,600  Level Cleveland Center
13:27 42.1406 -83.3781 195° South 237 273 3,800 2,640 Climbing Cleveland Center
13:28 42.0714 -83.3944 190° South 274 315 7,000 3,240 Climbing Cleveland Center
13:29 41.7426 -83.2703 180° South  Level Estimated
13:29 41.9944 -83.3828 174° South 283 326 10,400  Level Cleveland Center
13:30 41.6251 -83.2498 180° South  Level Estimated
13:30 41.9011 -83.3731 176° South 351 404 11,800  Level Cleveland Center
13:31 41.5077 -83.2293 202° Southwest  Level Estimated
13:31 41.7575 -83.3528 174° South 435 501 13,100  Level Cleveland Center
13:32 41.6494 -83.3400 175° South 418 481 16,100 2,520 Climbing Cleveland Center
13:33 41.5328 -83.3378 179° South 412 474 18,200 1,860 Climbing Cleveland Center
13:34 41.4231 -83.3911 200° South 412 474 19,900 1,740 Climbing Cleveland Center
13:35 41.3108 -83.4581 204° Southwest 430 495 21,700 1,800 Climbing Cleveland Center
13:36 41.1925 -83.5275 204° Southwest 446 513 23,600 1,680 Climbing Cleveland Center
13:37 41.1108 -83.5756 204° Southwest 466 536 24,700 1,380 Climbing Indianapolis Center
13:38 40.9956 -83.6397 203° Southwest 476 548 26,100 1,320 Climbing Indianapolis Center
13:39 40.8481 -83.7208 203° Southwest 486 559 27,500 1,680 Climbing Indianapolis Center
13:40 40.7100 -83.7344 184° South 493 567 29,600 1,740 Climbing Indianapolis Center
13:41 40.5739 -83.7339 180° South 486 559 31,100 1,920 Climbing Indianapolis Center
13:42 40.4425 -83.7358 181° South 473 544 33,600 1,860 Climbing Indianapolis Center
13:43 40.3169 -83.7425 182° South 451 519 35,000 900 Climbing Indianapolis Center
13:44 40.1928 -83.7778 192° South 451 519 35,500 960 Climbing Indianapolis Center
13:46 40.0464 -83.8194 192° South 460 529 37,000 1,140 Climbing Indianapolis Center
13:47 39.9192 -83.8428 188° South 461 531 37,900 840 Climbing Indianapolis Center
13:48 39.7922 -83.8414 180° South 457 526 38,800 480 Climbing Indianapolis Center
13:49 39.6658 -83.8422 180° South 456 525 39,000  Climbing Indianapolis Center
13:50 39.5372 -83.8431 180° South 459 528 38,900  Descending Indianapolis Center
13:51 39.4081 -83.8456 181° South 462 532 39,000  Climbing Indianapolis Center
13:52 39.2561 -83.8467 180° South 465 535 39,000  Level Indianapolis Center
13:53 39.1269 -83.8486 181° South 460 529 39,000  Level Indianapolis Center
13:54 38.9958 -83.8503 181° South 468 539 39,000 -60 Level Indianapolis Center
13:55 38.8653 -83.8503 180° South 467 537 38,900  Descending Indianapolis Center
13:56 38.7325 -83.8533 181° South 472 543 39,000  Climbing Indianapolis Center
13:57 38.6028 -83.8558 181° South 466 536 39,000  Level Indianapolis Center
13:58 38.4514 -83.8572 180° South 466 536 39,000  Level Indianapolis Center
13:59 38.3181 -83.8600 181° South 473 544 39,000  Level Indianapolis Center
14:00 38.1872 -83.8622 181° South 470 541 39,000  Level Indianapolis Center
14:01 38.0572 -83.8644 181° South 465 535 39,000  Level Indianapolis Center
14:02 37.9267 -83.8658 180° South 468 539 39,000  Level Indianapolis Center
14:03 37.7975 -83.8564 177° South 468 539 39,000  Level Indianapolis Center
14:04 37.6475 -83.8067 165° South 476 548 39,000  Level Indianapolis Center
14:05 37.5181 -83.7983 177° South 466 536 39,000  Level Indianapolis Center
14:06 37.3861 -83.7867 176° South 472 543 39,000  Level Indianapolis Center
14:07 37.2558 -83.7728 175° South 470 541 39,000  Level Indianapolis Center
14:08 37.1244 -83.7592 175° South 474 545 39,000  Level Indianapolis Center
14:09 36.9711 -83.7436 175° South 476 548 39,000  Level Indianapolis Center
14:10 36.8394 -83.7325 176° South 475 547 39,000  Level Indianapolis Center
14:11 36.7075 -83.7228 177° South 476 548 39,000  Level Indianapolis Center
14:12 36.5753 -83.7119 176° South 478 550 39,000  Level Indianapolis Center
14:13 36.4406 -83.7008 176° South 475 547 39,000  Level Indianapolis Center
14:14 36.3078 -83.6900 176° South 475 547 39,000  Level Indianapolis Center
14:15 36.1742 -83.6794 176° South 478 550 39,000  Level Indianapolis Center
14:16 36.0153 -83.6653 176° South 476 548 39,000  Level Indianapolis Center
14:18 35.8931 -83.6578 177° South 475 547 39,000  Level Indianapolis Center
14:19 35.7611 -83.6469 176° South 473 544 39,000  Level Indianapolis Center
14:20 35.6053 -83.6350 176° South 478 550 39,000  Level Indianapolis Center
14:20 35.5028 -83.6281 177° South 481 554 39,000  Level Atlanta Center
14:21 35.3692 -83.6186 177° South 481 554 39,000  Level Atlanta Center
14:22 35.2356 -83.6064 176° South 481 554 39,000  Level Atlanta Center
14:23 35.0978 -83.5969 177° South 481 554 39,000  Level Atlanta Center
14:24 34.9642 -83.5878 177° South 481 554 39,000  Level Atlanta Center
14:25 34.8181 -83.5708 175° South 481 554 39,000  Level Atlanta Center
14:26 34.6825 -83.5614 177° South 488 562 39,000  Level Atlanta Center
14:27 34.5467 -83.5519 177° South 488 562 39,000  Level Atlanta Center
14:28 34.4111 -83.5428 177° South 493 567 39,000  Level Atlanta Center
14:29 34.2775 -83.5311 176° South 493 567 39,000  Level Atlanta Center
14:30 34.1439 -83.5217 177° South 493 567 39,000  Level Atlanta Center
14:31 34.0061 -83.5100 176° South 493 567 39,000  Level Atlanta Center
14:32 33.8828 -83.5008 176° South 493 567 39,000  Level Atlanta Center
14:33 33.7492 -83.4942 178° South 493 567 39,000  Level Atlanta Center
14:34 33.6114 -83.4850 177° South 501 577 39,000  Level Atlanta Center
14:35 33.4756 -83.4736 176° South 493 567 39,000 -360 Level Atlanta Center
14:36 33.3378 -83.4669 178° South 498 573 38,300 -900 Descending Atlanta Center
14:37 33.1856 -83.4531 176° South 498 573 37,300 -960 Descending Atlanta Center
14:38 33.0539 -83.4439 177° South 498 573 36,400 -840 Descending Atlanta Center
14:39 32.9139 -83.4300 175° South 493 567 35,700 -720 Descending Atlanta Center
14:40 32.7761 -83.4236 178° South 493 567 35,000 -360 Descending Atlanta Center
14:41 32.6383 -83.4122 176° South 499 574 35,000  Level Atlanta Center
14:42 32.5025 -83.4033 177° South 499 574 35,000  Level Atlanta Center
14:43 32.3628 -83.3922 176° South 499 574 35,000  Level Atlanta Center
14:44 32.2228 -83.3833 177° South 499 574 35,000  Level Atlanta Center
14:45 32.0872 -83.3719 176° South 499 574 35,000  Level Atlanta Center
14:46 31.9472 -83.3608 176° South 494 568 35,000  Level Atlanta Center
14:48 31.7397 -83.3444 176° South 500 575 35,000  Level Jacksonville Center
14:49 31.6000 -83.3342 176° South 500 575 35,000  Level Jacksonville Center
14:50 31.4622 -83.3261 177° South 500 575 35,000  Level Jacksonville Center
14:51 31.3244 -83.3158 176° South 500 575 35,000  Level Jacksonville Center
14:52 31.1886 -83.3078 177° South 495 570 35,000 -300 Level Jacksonville Center
14:53 31.0489 -83.2975 176° South 495 570 34,400 -1,500 Descending Jacksonville Center
14:54 30.9111 -83.2919 178° South 495 570 32,000 -2,580 Descending Jacksonville Center
14:55 30.7775 -83.2842 177° South 495 570 29,400 -2,520 Descending Jacksonville Center
14:56 30.6356 -83.2814 179° South 495 570 27,100 -1,200 Descending Jacksonville Center
14:57 30.4936 -83.2758 178° South 502 578 27,000 -120 Descending Jacksonville Center
14:58 30.3558 -83.2392 167° South 508 585 26,900 -60 Descending Jacksonville Center
14:59 30.2433 -83.1450 144° Southeast 489 563 26,900  Level Jacksonville Center
15:00 30.1350 -83.0392 140° Southeast 489 563 26,900 -60 Level Jacksonville Center
15:01 30.0244 -82.9358 141° Southeast 502 578 26,800 -480 Descending Jacksonville Center
15:02 29.9200 -82.8447 143° Southeast 512 589 26,000 -660 Descending Jacksonville Center
15:03 29.8133 -82.7442 141° Southeast 512 589 25,500 -420 Descending Jacksonville Center
15:04 29.7047 -82.6439 141° Southeast 507 583 25,200 -900 Descending Jacksonville Center
15:05 29.5981 -82.5461 141° Southeast 507 583 23,700 -1,740 Descending Jacksonville Center
15:06 29.4975 -82.4822 151° Southeast 465 535 21,800 -2,340 Descending Jacksonville Center
15:07 29.4014 -82.4231 152° Southeast 421 484 19,100 -1,920 Descending Jacksonville Center
15:08 29.3050 -82.3592 150° Southeast 401 461 18,000 -1,140 Descending Jacksonville Center
15:09 29.2131 -82.2978 150° Southeast 391 450 16,900 -1,500 Descending Jacksonville Center
15:10 29.1375 -82.2175 137° Southeast 385 443 15,100 -1,020 Descending Jacksonville Center
15:11 29.0617 -82.1325 136° Southeast 380 437 14,900 -780 Descending Jacksonville Center
15:12 28.9903 -82.0522 135° Southeast 367 422 13,600 -1,320 Descending Jacksonville Center
15:13 28.9272 -81.9650 130° Southeast 355 409 12,300 -1,200 Descending Jacksonville Center
15:14 28.8722 -81.8850 128° Southeast 339 390 11,300 -1,380 Descending Jacksonville Center
15:15 28.8444 -81.7975 110° East 307 353 9,600 -1,200 Descending Jacksonville Center
15:16 28.8144 -81.7078 111° Southeast 297 342 9,000 -420 Descending Jacksonville Center
15:16 28.8000 -81.6500 106° East 299 344 9,000 -120 Level Orlando TRACON
15:17 28.7667 -81.5667 115° Southeast 280 322 8,900 -720 Descending Orlando TRACON
15:18 28.7500 -81.5000 106° East 237 273 7,600 -1,620 Descending Orlando TRACON
15:19 28.7167 -81.4167 115° Southeast 240 276 5,700 -1,800 Descending Orlando TRACON
15:20 28.6667 -81.3833 150° Southeast 233 268 4,100 -1,260 Descending Orlando TRACON
15:22 28.6000 -81.3500 156° South 233 268 3,100 -960 Descending Orlando TRACON